Flight Track Log - Related Links

Times and Time Zones

All times are in EDT time to prevent confusion due to time zone crossing. See the UAL3776 flight status page for this flight to view local times or setup timezone preferences in your user account.

Time Position Orientation Groundspeed Altitude Reporting Facility
EDT Latitude Longitude Course Direction KTS MPH feet Rate Location/Type
Mon 01:19:44 PM 25.7981 -80.2767 80° East 156 180 800  Level Miami Center
Mon 01:20:58 PM 25.8103 -80.2008 80° East 227 261 3,200 2,178 Climbing Miami Center
Mon 01:21:59 PM 25.8636 -80.1564 37° Northeast 273 314 5,700 2,442 Climbing Miami Center
Mon 01:22:51 PM 25.9256 -80.1811 340° North 288 331 7,800 2,250 Climbing Miami Center
Mon 01:23:51 PM 25.9875 -80.2175 332° Northwest 283 326 9,900 1,800 Climbing Miami Center
Mon 01:24:51 PM 26.0592 -80.2797 322° Northwest 300 345 11,400 1,700 Climbing Miami Center
Mon 01:25:51 PM 26.1369 -80.3489 321° Northwest 331 381 13,300 2,000 Climbing Miami Center
Mon 01:26:51 PM 26.2167 -80.4161 323° Northwest 355 409 15,400 2,150 Climbing Miami Center
Mon 01:27:51 PM 26.3197 -80.4747 333° Northwest 367 422 17,600 1,800 Climbing Miami Center
Mon 01:28:51 PM 26.4189 -80.5219 337° Northwest 384 442 19,000 1,550 Climbing Miami Center
Mon 01:29:51 PM 26.5219 -80.5717 337° Northwest 395 455 20,700 1,600 Climbing Miami Center
Mon 01:30:51 PM 26.6211 -80.6164 338° Northwest 395 455 22,200 1,450 Climbing Miami Center
Mon 01:31:51 PM 26.7283 -80.6686 336° Northwest 400 460 23,600 1,150 Climbing Miami Center
Mon 01:32:51 PM 26.8231 -80.7114 338° Northwest 409 471 24,500 950 Climbing Miami Center
Mon 01:33:51 PM 26.9392 -80.7503 343° North 420 483 25,500 1,000 Climbing Miami Center
Mon 01:34:51 PM 27.0569 -80.7939 342° North 431 496 26,500 1,000 Climbing Miami Center
Mon 01:35:51 PM 27.1728 -80.8350 342° North 436 502 27,500 1,000 Climbing Miami Center
Mon 01:36:51 PM 27.2925 -80.8789 342° North 441 507 28,500 1,050 Climbing Miami Center
Mon 01:37:51 PM 27.4147 -80.9206 343° North 441 507 29,600 1,050 Climbing Miami Center
Mon 01:38:51 PM 27.5322 -80.9644 342° North 446 513 30,600 1,000 Climbing Miami Center
Mon 01:39:51 PM 27.6481 -81.0086 341° North 441 507 31,600 1,000 Climbing Miami Center
Mon 01:40:51 PM 27.7678 -81.0503 343° North 435 501 32,600 1,000 Climbing Miami Center
Mon 01:41:51 PM 27.8900 -81.0856 346° North 435 501 33,600 1,000 Climbing Miami Center
Mon 01:42:51 PM 28.0106 -81.1039 352° North 440 506 34,600 1,000 Climbing Miami Center
Mon 01:43:51 PM 28.1308 -81.1250 351° North 435 501 35,600 1,050 Climbing Miami Center
Mon 01:44:51 PM 28.2617 -81.1489 351° North 429 494 36,700 700 Climbing Miami Center
Mon 01:45:51 PM 28.3697 -81.1647 353° North 424 488 37,000 150 Climbing Miami Center
Mon 01:46:51 PM 28.4919 -81.1883 350° North 430 495 37,000  Level Miami Center
Mon 01:47:44 PM 28.6022 -81.2089 351° North 439 505 37,000  Level Jacksonville Center
Mon 01:48:44 PM 28.7297 -81.2306 352° North 451 519 37,000  Level Jacksonville Center
Mon 01:49:44 PM 28.8594 -81.2522 352° North 456 525 37,000  Level Jacksonville Center
Mon 01:50:44 PM 28.9892 -81.2761 351° North 466 536 37,000  Level Jacksonville Center
Mon 01:51:44 PM 29.1189 -81.2953 353° North 466 536 37,000  Level Jacksonville Center
Mon 01:52:44 PM 29.2464 -81.3219 350° North 466 536 37,000  Level Jacksonville Center
Mon 01:53:44 PM 29.3761 -81.3436 352° North 466 536 37,000  Level Jacksonville Center
Mon 01:54:44 PM 29.5183 -81.3675 352° North 466 536 37,000  Level Jacksonville Center
Mon 01:55:44 PM 29.6503 -81.3919 351° North 466 536 37,000  Level Jacksonville Center
Mon 01:56:44 PM 29.7797 -81.4114 353° North 466 536 37,000  Level Jacksonville Center
Mon 01:57:44 PM 29.9094 -81.4356 351° North 466 536 37,000  Level Jacksonville Center
Mon 01:58:44 PM 30.0392 -81.4578 352° North 466 536 37,000  Level Jacksonville Center
Mon 01:59:44 PM 30.1711 -81.4797 352° North 471 542 37,000  Level Jacksonville Center
Mon 02:00:44 PM 30.3028 -81.5044 351° North 471 542 37,000  Level Jacksonville Center
Mon 02:01:44 PM 30.4344 -81.5025 North 471 542 37,000  Level Jacksonville Center
Mon 02:02:44 PM 30.5700 -81.4908 North 466 536 37,000  Level Jacksonville Center
Mon 02:03:44 PM 30.7033 -81.4817 North 477 549 37,000  Level Jacksonville Center
Mon 02:04:44 PM 30.8411 -81.4697 North 482 555 37,000  Level Jacksonville Center
Mon 02:05:44 PM 30.9767 -81.4606 North 482 555 37,000  Level Jacksonville Center
Mon 02:06:44 PM 31.1122 -81.4511 North 482 555 37,000  Level Jacksonville Center
Mon 02:07:44 PM 31.2500 -81.4369 North 483 556 37,000  Level Jacksonville Center
Mon 02:08:44 PM 31.3706 -81.4058 12° North 490 564 37,000  Level Jacksonville Center
Mon 02:09:44 PM 31.5186 -81.3669 13° North 490 564 37,000  Level Jacksonville Center
Mon 02:10:44 PM 31.6539 -81.3331 12° North 490 564 37,000  Level Jacksonville Center
Mon 02:11:44 PM 31.7911 -81.2964 13° North 495 570 37,000  Level Jacksonville Center
Mon 02:12:44 PM 31.9139 -81.2625 13° North 495 570 37,000  Level Jacksonville Center
Mon 02:13:44 PM 32.0511 -81.2283 12° North 495 570 37,000  Level Jacksonville Center
Mon 02:14:44 PM 32.1842 -81.1742 19° North 495 570 37,000  Level Jacksonville Center
Mon 02:15:44 PM 32.3061 -81.0861 31° Northeast 495 570 37,000  Level Jacksonville Center
Mon 02:16:44 PM 32.4239 -81.0000 32° Northeast 495 570 37,000  Level Jacksonville Center
Mon 02:17:44 PM 32.5456 -80.9111 32° Northeast 500 575 37,000  Level Jacksonville Center
Mon 02:18:44 PM 32.6653 -80.8272 31° Northeast 500 575 37,000  Level Jacksonville Center
Mon 02:19:44 PM 32.7869 -80.7378 32° Northeast 505 581 37,000  Level Jacksonville Center
Mon 02:20:44 PM 32.9086 -80.6483 32° Northeast 505 581 37,000  Level Jacksonville Center
Mon 02:21:44 PM 33.0322 -80.5611 31° Northeast 505 581 37,000  Level Jacksonville Center
Mon 02:22:44 PM 33.1539 -80.4736 31° Northeast 505 581 37,000  Level Jacksonville Center
Mon 02:23:44 PM 33.2894 -80.3703 32° Northeast 510 587 37,000  Level Jacksonville Center
Mon 02:24:45 PM 33.4128 -80.2797 31° Northeast 510 587 37,000  Level Jacksonville Center
Mon 02:25:44 PM 33.5361 -80.1889 32° Northeast 510 587 37,000  Level Jacksonville Center
Mon 02:26:44 PM 33.6594 -80.0953 32° Northeast 510 587 37,000  Level Jacksonville Center
Mon 02:27:44 PM 33.7803 -80.0017 33° Northeast 510 587 37,000  Level Jacksonville Center
Mon 02:28:44 PM 33.9056 -79.9100 31° Northeast 510 587 37,000  Level Jacksonville Center
Mon 02:29:44 PM 34.0283 -79.8156 33° Northeast 510 587 37,000  Level Jacksonville Center
Mon 02:32:06 PM 34.3147 -79.6175 30° Northeast 507 583 37,000  Level Washington Center
Mon 02:33:07 PM 34.4508 -79.5458 23° Northeast 518 596 37,000  Level Washington Center
Mon 02:34:07 PM 34.5867 -79.4744 23° Northeast 523 602 37,000  Level Washington Center
Mon 02:35:06 PM 34.7247 -79.4000 24° Northeast 528 608 37,000  Level Washington Center
Mon 02:36:07 PM 34.8625 -79.3281 23° Northeast 528 608 37,000  Level Washington Center
Mon 02:37:06 PM 35.0131 -79.2489 23° Northeast 528 608 37,000 -252 Level Washington Center
Mon 02:38:06 PM 35.1511 -79.1739 24° Northeast 528 608 36,500 -793 Descending Washington Center
Mon 02:39:07 PM 35.2908 -79.1011 23° Northeast 528 608 35,400 -1,050 Descending Washington Center
Mon 02:40:06 PM 35.4308 -79.0256 24° Northeast 528 608 34,400 -1,008 Descending Washington Center
Mon 02:41:06 PM 35.5747 -78.9528 22° Northeast 539 620 33,400 -694 Descending Washington Center
Mon 02:42:07 PM 35.7167 -78.8742 24° Northeast 544 626 33,000 -198 Descending Washington Center
Mon 02:43:07 PM 35.8567 -78.7956 24° Northeast 549 632 33,000 -50 Level Washington Center
Mon 02:44:06 PM 36.0006 -78.7167 24° Northeast 549 632 32,900 -1,250 Descending Washington Center
Mon 02:45:07 PM 36.1403 -78.6372 25° Northeast 544 626 30,500 -2,300 Descending Washington Center
Mon 02:46:06 PM 36.2778 -78.5600 24° Northeast 544 626 28,300 -1,765 Descending Washington Center
Mon 02:47:06 PM 36.4111 -78.4825 25° Northeast 532 612 27,000 -645 Descending Washington Center
Mon 02:48:07 PM 36.5444 -78.4047 25° Northeast 526 605 27,000  Level Washington Center
Mon 02:49:06 PM 36.6544 -78.3414 25° Northeast 526 605 27,000  Level Washington Center
Mon 02:50:06 PM 36.8006 -78.2533 26° Northeast 526 605 27,000  Level Washington Center
Mon 02:51:07 PM 36.9397 -78.1750 24° Northeast 526 605 27,000  Level Washington Center
Mon 02:52:06 PM 37.0750 -78.0936 26° Northeast 526 605 27,000  Level Washington Center
Mon 02:53:06 PM 37.2103 -78.0172 24° Northeast 526 605 27,000  Level Washington Center
Mon 02:54:06 PM 37.3431 -77.9378 25° Northeast 526 605 27,000 -1,339 Level Washington Center
Mon 02:55:07 PM 37.4719 -77.8631 25° Northeast 516 594 24,300 -2,727 Descending Washington Center
Mon 02:56:07 PM 37.5919 -77.7933 25° Northeast 494 568 21,500 -2,800 Descending Washington Center
Mon 02:57:07 PM 37.7036 -77.7283 25° Northeast 460 529 18,700 -2,500 Descending Washington Center
Mon 02:58:07 PM 37.8069 -77.6656 26° Northeast 426 490 16,500 -2,450 Descending Washington Center
Mon 02:59:07 PM 37.9061 -77.6103 24° Northeast 404 465 13,800 -2,450 Descending Washington Center
Mon 03:00:07 PM 38.0008 -77.5522 26° Northeast 383 441 11,600 -1,916 Descending Washington Center
Mon 03:01:06 PM 38.0933 -77.5047 22° Northeast 366 421 10,000 -807 Descending Washington Center
Mon 03:02:06 PM 38.1733 -77.4564 25° Northeast 340 391 10,000 -50 Level Washington Center
Mon 03:03:06 PM 38.2469 -77.4081 27° Northeast 309 356 9,900 -650 Descending Washington Center
Mon 03:04:06 PM 38.3164 -77.3675 25° Northeast 286 329 8,700 -1,140 Descending Washington Center
Mon 03:05:07 PM 38.3897 -77.3586 North 264 304 7,600 -1,091 Descending Washington Center
Mon 03:06:07 PM 38.4647 -77.3603 359° North 264 304 6,500 -1,109 Descending Washington Center
Mon 03:07:06 PM 38.5356 -77.3647 357° North 254 292 5,400 -857 Descending Washington Center
Mon 03:08:06 PM 38.6022 -77.3689 357° North 249 287 4,800 -832 Descending Washington Center
Mon 03:08:47 PM 38.6500 -77.3667 North 223 257 4,000 -475 Descending Potomac TRACON
Mon 03:09:47 PM 38.7167 -77.3667 360° North 225 259 4,000  Level Potomac TRACON
Mon 03:10:42 PM 38.7667 -77.3500 15° North 227 261 4,000  Level Potomac TRACON
Mon 03:11:42 PM 38.8333 -77.3500 360° North 223 257 4,000  Level Potomac TRACON
Mon 03:12:42 PM 38.9000 -77.3500 360° North 223 257 4,000 -133 Level Potomac TRACON
Mon 03:14:00 PM 38.9474 -77.4599 North  Level Estimated
Mon 03:14:42 PM 39.0333 -77.3500 North 228 262 3,600  Level Potomac TRACON
Mon 03:15:42 PM 39.0833 -77.3833 333° Northwest 244 281 2,600 -850 Descending Potomac TRACON
Mon 03:16:42 PM 39.0500 -77.4333 229° Southwest 205 236 1,900 -579 Descending Potomac TRACON
Mon 03:17:36 PM 39.0000 -77.4333 180° South 156 180 1,500 -678 Descending Potomac TRACON
Mon 03:18:37 PM 38.9667 -77.4333 180° South 148 170 600 -885 Descending Potomac TRACON
Mon 03:20:00 PM 38.9474 -77.4599 191° South  Level Estimated
Mon 03:27:00 PM 38.9474 -77.4599 191° South  Level Estimated
Mon 03:28:00 PM 38.9474 -77.4599 191° South  Level Estimated
Mon 03:29:00 PM 38.9474 -77.4599 191° South  Level Estimated

Login

Don't have an account? Register now (free) for customized features, flight alerts, and more!